Hlavní strana
METAR-TAF:

METAR-TAF

Letiště :

Groznyj, Rusko

zeměpisná šířka: 43-23-18N, zeměpisná délka: 045-41-59E, výška: 167 m

Aktuální stav počasí

Zpráva byla vytvořena před 13 minutami, v 05:00 UTC
vítr z různých směrů 2 kt
Teplota 21°C
Vlhkost vzduchu 78%
Tlak 1014 hPa
Viditelnost 10 km a více
Žádná oblačnost pod 1500 m, nevyskytují se cumulonimby.

METAR: URMG 220500Z VRB01MPS CAVOK 21/17 Q1014 R26/000070 NOSIG RMK QFE746/0994

Čas: 08:13 (05:13 UTC)

Předpověď počasí

Zpráva byla vytvořena před 3 hodinami a 13 minutami, v 02:00 UTC
Předpověď platná od 22 v 03 UTC do 22 v 12 UTC
vítr z různých směrů 4 kt
Viditelnost 10 km a více
Polojasno ve výšce 2000 ft
Dočasný
od 22 v 03 UTC do 22 v 06 UTC
Viditelnost: 0300 m
Oblačno až skoro zataženo ve výšce 200 ft
mlha

TAF: URMG 220200Z 2203/2212 VRB02MPS 9999 SCT020 TEMPO 2203/2206 0300 FG BKN002

Stav a předpovědi počasí z více než 4 000 letišť (zprávy METAR a TAF).

Červené a žluté tečky na mapě představují dostupné meteorologické stanice.

Když kurzor umístíte na tečku, zobrazí se název stanice.

Pak kliknutím zobrazíte stav a předpověď počasí.

Chcete-li změnit mapu, kliknutím na zelené tlačítko se znaménkem +mapu přiblížíte, kliknutím na zelené tlačítko se znaménkem – mapu oddálíte a kliknutím na zelené šipky přejdete na sousední mapy.


METAR-TAF: